Terminal Aerodrome Forecast
Issued by NWS Paducah, KY

Home | Current Version | Previous Version | Text Only | Print | Product List | Glossary Off
Versions: 1 2 3 4 5 6 7 8 9 10 11 12 13 14 15 16 17 18

000
FTUS43 KPAH 191720
TAFPAH
TAF
KPAH 191720Z 1918/2018 17006KT 3SM BR VCSH SCT006 OVC015
      TEMPO 1918/1920 2SM BR OVC005
     FM200100 20006KT P6SM VCTS SCT050CB BKN100
     FM200700 21006KT 4SM -SHRA BR BKN020 PROB30 2007/2013 2SM TSRA
      BR OVC008CB
     FM201300 29012G20KT P6SM BKN050=

USA.gov is the U.S. government's official web portal to all federal, state and local government web resources and services.